sensor_id;sensor_type;location;lat;lon;timestamp;pressure;altitude;pressure_sealevel;temperature;humidity
61318;BME280;47201;40.428;-8.436;2023-02-28T00:00:11;101024.88;;;6.08;100.00
61318;BME280;47201;40.428;-8.436;2023-02-28T00:02:15;101026.88;;;6.19;100.00
61318;BME280;47201;40.428;-8.436;2023-02-28T00:04:17;101018.34;;;6.25;100.00
61318;BME280;47201;40.428;-8.436;2023-02-28T00:06:18;101015.75;;;6.25;100.00
61318;BME280;47201;40.428;-8.436;2023-02-28T00:08:18;101018.31;;;6.24;100.00
61318;BME280;47201;40.428;-8.436;2023-02-28T00:10:20;101033.75;;;6.17;100.00
61318;BME280;47201;40.428;-8.436;2023-02-28T00:12:21;101038.75;;;6.08;100.00
61318;BME280;47201;40.428;-8.436;2023-02-28T00:14:40;101041.88;;;5.95;100.00
61318;BME280;47201;40.428;-8.436;2023-02-28T00:16:40;101048.75;;;5.93;100.00
61318;BME280;47201;40.428;-8.436;2023-02-28T00:18:41;101036.47;;;5.85;100.00
61318;BME280;47201;40.428;-8.436;2023-02-28T00:21:01;101048.53;;;5.83;100.00
61318;BME280;47201;40.428;-8.436;2023-02-28T00:23:20;101057.97;;;5.80;100.00
61318;BME280;47201;40.428;-8.436;2023-02-28T00:25:22;101070.75;;;5.72;100.00
61318;BME280;47201;40.428;-8.436;2023-02-28T00:27:23;101075.81;;;5.66;100.00
61318;BME280;47201;40.428;-8.436;2023-02-28T00:29:23;101089.47;;;5.60;100.00
61318;BME280;47201;40.428;-8.436;2023-02-28T00:31:24;101082.56;;;5.61;100.00
61318;BME280;47201;40.428;-8.436;2023-02-28T00:33:26;101099.88;;;5.62;100.00
61318;BME280;47201;40.428;-8.436;2023-02-28T00:35:45;101093.84;;;5.61;100.00
61318;BME280;47201;40.428;-8.436;2023-02-28T00:38:05;101100.69;;;5.59;100.00
61318;BME280;47201;40.428;-8.436;2023-02-28T00:40:06;101097.97;;;5.54;100.00
61318;BME280;47201;40.428;-8.436;2023-02-28T00:42:25;101102.25;;;5.52;100.00
61318;BME280;47201;40.428;-8.436;2023-02-28T00:44:26;101098.94;;;5.58;100.00
61318;BME280;47201;40.428;-8.436;2023-02-28T00:46:45;101105.00;;;5.59;100.00
61318;BME280;47201;40.428;-8.436;2023-02-28T00:48:46;101097.94;;;5.53;100.00
61318;BME280;47201;40.428;-8.436;2023-02-28T00:51:06;101097.88;;;5.51;100.00
61318;BME280;47201;40.428;-8.436;2023-02-28T00:53:07;101097.19;;;5.57;100.00
61318;BME280;47201;40.428;-8.436;2023-02-28T00:55:26;101089.38;;;5.55;100.00
61318;BME280;47201;40.428;-8.436;2023-02-28T00:57:27;101082.50;;;5.58;97.67
61318;BME280;47201;40.428;-8.436;2023-02-28T00:59:45;101103.31;;;5.61;94.65
61318;BME280;47201;40.428;-8.436;2023-02-28T01:02:04;101102.34;;;5.55;91.77
61318;BME280;47201;40.428;-8.436;2023-02-28T01:04:05;101097.84;;;5.50;89.64
61318;BME280;47201;40.428;-8.436;2023-02-28T01:06:24;101100.56;;;5.54;85.92
61318;BME280;47201;40.428;-8.436;2023-02-28T01:08:43;101095.25;;;5.48;84.39
61318;BME280;47201;40.428;-8.436;2023-02-28T01:10:44;101100.41;;;5.47;82.84
61318;BME280;47201;40.428;-8.436;2023-02-28T01:12:45;101098.38;;;5.36;84.00
61318;BME280;47201;40.428;-8.436;2023-02-28T01:15:05;101098.09;;;5.26;82.14
61318;BME280;47201;40.428;-8.436;2023-02-28T01:17:06;101093.66;;;5.21;81.30
61318;BME280;47201;40.428;-8.436;2023-02-28T01:19:25;101095.66;;;5.32;74.59
61318;BME280;47201;40.428;-8.436;2023-02-28T01:21:44;101093.91;;;5.31;76.54
61318;BME280;47201;40.428;-8.436;2023-02-28T01:24:04;101100.69;;;5.26;77.97
61318;BME280;47201;40.428;-8.436;2023-02-28T01:26:24;101097.88;;;5.18;74.93
61318;BME280;47201;40.428;-8.436;2023-02-28T01:28:43;101091.69;;;5.11;74.90
61318;BME280;47201;40.428;-8.436;2023-02-28T01:31:02;101089.59;;;4.98;74.00
61318;BME280;47201;40.428;-8.436;2023-02-28T01:33:03;101093.97;;;5.00;68.48
61318;BME280;47201;40.428;-8.436;2023-02-28T01:35:04;101095.19;;;5.13;65.61
61318;BME280;47201;40.428;-8.436;2023-02-28T01:37:04;101092.63;;;5.15;64.93
61318;BME280;47201;40.428;-8.436;2023-02-28T01:39:24;101082.97;;;5.09;67.09
61318;BME280;47201;40.428;-8.436;2023-02-28T01:41:46;101081.75;;;5.28;60.89
61318;BME280;47201;40.428;-8.436;2023-02-28T01:45:48;101079.47;;;5.40;60.11
61318;BME280;47201;40.428;-8.436;2023-02-28T01:47:50;101096.75;;;5.40;60.41
61318;BME280;47201;40.428;-8.436;2023-02-28T01:49:52;101086.66;;;5.51;59.21
61318;BME280;47201;40.428;-8.436;2023-02-28T01:51:53;101076.31;;;5.52;58.48
61318;BME280;47201;40.428;-8.436;2023-02-28T01:53:56;101071.22;;;5.55;57.82
61318;BME280;47201;40.428;-8.436;2023-02-28T01:55:58;101071.22;;;5.55;56.69
61318;BME280;47201;40.428;-8.436;2023-02-28T01:58:20;101074.88;;;5.64;57.09
61318;BME280;47201;40.428;-8.436;2023-02-28T02:00:40;101072.34;;;5.67;57.07
61318;BME280;47201;40.428;-8.436;2023-02-28T02:03:11;101081.84;;;5.66;57.07
61318;BME280;47201;40.428;-8.436;2023-02-28T02:05:31;101084.19;;;5.55;58.72
61318;BME280;47201;40.428;-8.436;2023-02-28T02:08:12;101090.06;;;5.48;59.99
61318;BME280;47201;40.428;-8.436;2023-02-28T02:10:38;101097.75;;;5.45;59.01
61318;BME280;47201;40.428;-8.436;2023-02-28T02:15:05;101095.91;;;5.41;60.41
61318;BME280;47201;40.428;-8.436;2023-02-28T02:30:43;101122.13;;;5.20;64.25
61318;BME280;47201;40.428;-8.436;2023-02-28T02:35:11;101135.72;;;5.11;64.89
61318;BME280;47201;40.428;-8.436;2023-02-28T02:37:32;101134.97;;;5.15;64.25
61318;BME280;47201;40.428;-8.436;2023-02-28T02:41:58;101131.53;;;5.16;63.96
61318;BME280;47201;40.428;-8.436;2023-02-28T02:44:22;101136.81;;;5.19;64.84
61318;BME280;47201;40.428;-8.436;2023-02-28T02:46:44;101132.59;;;5.23;64.26
61318;BME280;47201;40.428;-8.436;2023-02-28T02:49:06;101135.03;;;5.17;65.43
61318;BME280;47201;40.428;-8.436;2023-02-28T02:51:27;101129.72;;;5.12;65.58
61318;BME280;47201;40.428;-8.436;2023-02-28T02:53:32;101124.44;;;5.09;65.77
61318;BME280;47201;40.428;-8.436;2023-02-28T02:55:52;101121.81;;;5.07;65.90
61318;BME280;47201;40.428;-8.436;2023-02-28T02:58:16;101115.66;;;5.04;66.88
61318;BME280;47201;40.428;-8.436;2023-02-28T03:00:20;101119.19;;;5.06;66.66
61318;BME280;47201;40.428;-8.436;2023-02-28T03:02:23;101113.06;;;5.04;66.71
61318;BME280;47201;40.428;-8.436;2023-02-28T03:04:26;101113.75;;;4.97;66.83
61318;BME280;47201;40.428;-8.436;2023-02-28T03:06:48;101112.78;;;4.93;66.67
61318;BME280;47201;40.428;-8.436;2023-02-28T03:09:13;101102.75;;;5.05;66.70
61318;BME280;47201;40.428;-8.436;2023-02-28T03:11:32;101098.91;;;4.91;67.56
61318;BME280;47201;40.428;-8.436;2023-02-28T03:15:47;101106.41;;;4.82;68.15
61318;BME280;47201;40.428;-8.436;2023-02-28T03:18:08;101108.47;;;4.93;67.91
61318;BME280;47201;40.428;-8.436;2023-02-28T03:24:24;101097.63;;;4.76;69.21
61318;BME280;47201;40.428;-8.436;2023-02-28T03:26:50;101086.09;;;4.65;69.95
61318;BME280;47201;40.428;-8.436;2023-02-28T03:31:06;101095.28;;;4.55;70.43
61318;BME280;47201;40.428;-8.436;2023-02-28T03:33:30;101090.03;;;4.52;70.63
61318;BME280;47201;40.428;-8.436;2023-02-28T03:35:34;101096.97;;;4.53;70.49
61318;BME280;47201;40.428;-8.436;2023-02-28T03:37:56;101090.84;;;4.50;70.14
61318;BME280;47201;40.428;-8.436;2023-02-28T03:40:21;101085.50;;;4.45;70.12
61318;BME280;47201;40.428;-8.436;2023-02-28T03:42:24;101091.41;;;4.41;70.17
61318;BME280;47201;40.428;-8.436;2023-02-28T03:44:29;101088.31;;;4.53;69.05
61318;BME280;47201;40.428;-8.436;2023-02-28T03:46:33;101080.66;;;4.56;68.86
61318;BME280;47201;40.428;-8.436;2023-02-28T03:48:39;101083.16;;;4.54;69.21
61318;BME280;47201;40.428;-8.436;2023-02-28T03:50:59;101082.44;;;4.58;68.92
61318;BME280;47201;40.428;-8.436;2023-02-28T03:56:01;101076.16;;;4.50;69.22
61318;BME280;47201;40.428;-8.436;2023-02-28T03:58:23;101073.44;;;4.45;70.15
61318;BME280;47201;40.428;-8.436;2023-02-28T04:00:32;101074.34;;;4.46;69.67
61318;BME280;47201;40.428;-8.436;2023-02-28T04:02:35;101065.81;;;4.50;69.13
61318;BME280;47201;40.428;-8.436;2023-02-28T04:04:36;101070.81;;;4.44;69.16
61318;BME280;47201;40.428;-8.436;2023-02-28T04:06:37;101062.38;;;4.51;68.78
61318;BME280;47201;40.428;-8.436;2023-02-28T04:08:37;101065.69;;;4.47;68.98
61318;BME280;47201;40.428;-8.436;2023-02-28T04:10:38;101067.22;;;4.39;69.42
61318;BME280;47201;40.428;-8.436;2023-02-28T04:12:40;101069.22;;;4.49;68.54
61318;BME280;47201;40.428;-8.436;2023-02-28T04:14:59;101066.75;;;4.52;68.44
61318;BME280;47201;40.428;-8.436;2023-02-28T04:17:00;101075.00;;;4.71;67.38
61318;BME280;47201;40.428;-8.436;2023-02-28T04:19:04;101062.81;;;4.67;67.94
61318;BME280;47201;40.428;-8.436;2023-02-28T04:21:24;101072.06;;;4.57;68.79
61318;BME280;47201;40.428;-8.436;2023-02-28T04:23:25;101068.41;;;4.50;69.50
61318;BME280;47201;40.428;-8.436;2023-02-28T04:25:47;101070.88;;;4.47;69.42
61318;BME280;47201;40.428;-8.436;2023-02-28T04:27:47;101078.41;;;4.38;69.85
61318;BME280;47201;40.428;-8.436;2023-02-28T04:30:07;101077.38;;;4.33;69.91
61318;BME280;47201;40.428;-8.436;2023-02-28T04:32:26;101086.06;;;4.35;70.17
61318;BME280;47201;40.428;-8.436;2023-02-28T04:34:27;101078.22;;;4.32;69.75
61318;BME280;47201;40.428;-8.436;2023-02-28T04:36:28;101091.34;;;4.38;69.45
61318;BME280;47201;40.428;-8.436;2023-02-28T04:38:32;101096.59;;;4.41;69.17
61318;BME280;47201;40.428;-8.436;2023-02-28T04:40:51;101102.56;;;4.38;69.53
61318;BME280;47201;40.428;-8.436;2023-02-28T04:42:52;101112.84;;;4.35;69.79
61318;BME280;47201;40.428;-8.436;2023-02-28T04:44:53;101114.53;;;4.35;69.17
61318;BME280;47201;40.428;-8.436;2023-02-28T04:46:53;101117.41;;;4.44;69.03
61318;BME280;47201;40.428;-8.436;2023-02-28T04:48:54;101127.72;;;4.42;68.56
61318;BME280;47201;40.428;-8.436;2023-02-28T04:50:55;101128.50;;;4.40;68.74
61318;BME280;47201;40.428;-8.436;2023-02-28T04:52:59;101131.28;;;4.46;68.35
61318;BME280;47201;40.428;-8.436;2023-02-28T04:55:00;101151.06;;;4.44;68.72
61318;BME280;47201;40.428;-8.436;2023-02-28T04:57:00;101145.06;;;4.45;69.01
61318;BME280;47201;40.428;-8.436;2023-02-28T04:59:02;101155.56;;;4.50;68.66
61318;BME280;47201;40.428;-8.436;2023-02-28T05:01:07;101166.75;;;4.49;68.47
61318;BME280;47201;40.428;-8.436;2023-02-28T05:03:33;101172.91;;;4.52;68.40
61318;BME280;47201;40.428;-8.436;2023-02-28T05:05:34;101180.72;;;4.55;68.42
61318;BME280;47201;40.428;-8.436;2023-02-28T05:07:34;101178.16;;;4.55;68.35
61318;BME280;47201;40.428;-8.436;2023-02-28T05:09:35;101179.91;;;4.56;68.35
61318;BME280;47201;40.428;-8.436;2023-02-28T05:11:35;101184.25;;;4.57;68.48
61318;BME280;47201;40.428;-8.436;2023-02-28T05:13:36;101198.94;;;4.57;68.52
61318;BME280;47201;40.428;-8.436;2023-02-28T05:15:55;101194.25;;;4.45;68.98
61318;BME280;47201;40.428;-8.436;2023-02-28T05:17:56;101197.81;;;4.49;68.55
61318;BME280;47201;40.428;-8.436;2023-02-28T05:19:57;101199.75;;;4.56;68.29
61318;BME280;47201;40.428;-8.436;2023-02-28T05:21:57;101205.84;;;4.58;68.42
61318;BME280;47201;40.428;-8.436;2023-02-28T05:23:59;101207.66;;;4.60;67.83
61318;BME280;47201;40.428;-8.436;2023-02-28T05:26:19;101212.69;;;4.56;68.17
61318;BME280;47201;40.428;-8.436;2023-02-28T05:28:20;101217.72;;;4.51;68.68
61318;BME280;47201;40.428;-8.436;2023-02-28T05:30:21;101211.66;;;4.51;68.70
61318;BME280;47201;40.428;-8.436;2023-02-28T05:32:22;101217.63;;;4.48;69.16
61318;BME280;47201;40.428;-8.436;2023-02-28T05:34:42;101216.75;;;4.48;69.39
61318;BME280;47201;40.428;-8.436;2023-02-28T05:36:42;101228.88;;;4.49;69.21
61318;BME280;47201;40.428;-8.436;2023-02-28T05:38:49;101231.66;;;4.55;68.46
61318;BME280;47201;40.428;-8.436;2023-02-28T05:41:09;101234.13;;;4.52;68.60
61318;BME280;47201;40.428;-8.436;2023-02-28T05:43:10;101234.25;;;4.55;68.28
61318;BME280;47201;40.428;-8.436;2023-02-28T05:45:10;101234.31;;;4.58;68.93
61318;BME280;47201;40.428;-8.436;2023-02-28T05:47:11;101233.31;;;4.53;68.40
61318;BME280;47201;40.428;-8.436;2023-02-28T05:49:16;101234.97;;;4.51;68.98
61318;BME280;47201;40.428;-8.436;2023-02-28T05:51:17;101241.88;;;4.50;68.92
61318;BME280;47201;40.428;-8.436;2023-02-28T05:53:36;101237.91;;;4.62;68.15
61318;BME280;47201;40.428;-8.436;2023-02-28T05:55:55;101246.56;;;4.62;68.33
61318;BME280;47201;40.428;-8.436;2023-02-28T05:57:56;101244.91;;;4.64;68.08
61318;BME280;47201;40.428;-8.436;2023-02-28T05:59:56;101245.59;;;4.58;68.47
61318;BME280;47201;40.428;-8.436;2023-02-28T06:01:57;101253.31;;;4.57;68.79
61318;BME280;47201;40.428;-8.436;2023-02-28T06:03:58;101255.75;;;4.52;68.70
61318;BME280;47201;40.428;-8.436;2023-02-28T06:05:59;101260.84;;;4.51;68.80
61318;BME280;47201;40.428;-8.436;2023-02-28T06:08:00;101250.47;;;4.49;69.31
61318;BME280;47201;40.428;-8.436;2023-02-28T06:10:19;101262.56;;;4.50;69.42
61318;BME280;47201;40.428;-8.436;2023-02-28T06:12:38;101251.84;;;4.38;69.83
61318;BME280;47201;40.428;-8.436;2023-02-28T06:14:39;101253.59;;;4.39;69.64
61318;BME280;47201;40.428;-8.436;2023-02-28T06:16:58;101265.50;;;4.34;69.62
61318;BME280;47201;40.428;-8.436;2023-02-28T06:19:18;101270.81;;;4.38;69.46
61318;BME280;47201;40.428;-8.436;2023-02-28T06:21:18;101269.84;;;4.35;69.85
61318;BME280;47201;40.428;-8.436;2023-02-28T06:23:38;101255.88;;;4.29;70.01
61318;BME280;47201;40.428;-8.436;2023-02-28T06:25:38;101261.13;;;4.33;69.45
61318;BME280;47201;40.428;-8.436;2023-02-28T06:27:39;101257.91;;;4.40;69.38
61318;BME280;47201;40.428;-8.436;2023-02-28T06:29:58;101253.34;;;4.31;70.13
61318;BME280;47201;40.428;-8.436;2023-02-28T06:32:17;101254.84;;;4.24;69.77
61318;BME280;47201;40.428;-8.436;2023-02-28T06:34:17;101263.38;;;4.22;70.17
61318;BME280;47201;40.428;-8.436;2023-02-28T06:36:18;101268.69;;;4.26;70.05
61318;BME280;47201;40.428;-8.436;2023-02-28T06:38:18;101261.56;;;4.19;70.22
61318;BME280;47201;40.428;-8.436;2023-02-28T06:40:19;101275.56;;;4.24;69.80
61318;BME280;47201;40.428;-8.436;2023-02-28T06:42:19;101272.03;;;4.22;70.18
61318;BME280;47201;40.428;-8.436;2023-02-28T06:44:20;101278.69;;;4.16;70.13
61318;BME280;47201;40.428;-8.436;2023-02-28T06:46:40;101281.13;;;4.11;70.43
61318;BME280;47201;40.428;-8.436;2023-02-28T06:48:44;101275.13;;;4.12;70.06
61318;BME280;47201;40.428;-8.436;2023-02-28T06:50:45;101275.13;;;4.12;70.42
61318;BME280;47201;40.428;-8.436;2023-02-28T06:52:47;101281.94;;;4.10;70.36
61318;BME280;47201;40.428;-8.436;2023-02-28T06:55:07;101277.75;;;4.13;69.73
61318;BME280;47201;40.428;-8.436;2023-02-28T06:57:27;101272.34;;;4.06;69.71
61318;BME280;47201;40.428;-8.436;2023-02-28T06:59:49;101273.31;;;4.09;70.11
61318;BME280;47201;40.428;-8.436;2023-02-28T07:02:08;101278.38;;;4.06;69.80
61318;BME280;47201;40.428;-8.436;2023-02-28T07:04:09;101279.16;;;4.04;70.00
61318;BME280;47201;40.428;-8.436;2023-02-28T07:06:10;101273.28;;;4.08;69.67
61318;BME280;47201;40.428;-8.436;2023-02-28T07:08:11;101270.56;;;4.05;70.01
61318;BME280;47201;40.428;-8.436;2023-02-28T07:10:30;101260.53;;;4.14;69.17
61318;BME280;47201;40.428;-8.436;2023-02-28T07:12:30;101262.72;;;4.02;69.82
61318;BME280;47201;40.428;-8.436;2023-02-28T07:14:31;101263.72;;;4.05;69.55
61318;BME280;47201;40.428;-8.436;2023-02-28T07:16:31;101262.94;;;4.08;69.22
61318;BME280;47201;40.428;-8.436;2023-02-28T07:18:32;101269.94;;;4.12;69.35
61318;BME280;47201;40.428;-8.436;2023-02-28T07:20:33;101270.88;;;4.14;68.89
61318;BME280;47201;40.428;-8.436;2023-02-28T07:22:33;101275.28;;;4.17;69.17
61318;BME280;47201;40.428;-8.436;2023-02-28T07:24:34;101278.66;;;4.14;69.00
61318;BME280;47201;40.428;-8.436;2023-02-28T07:26:53;101282.31;;;4.21;68.65
61318;BME280;47201;40.428;-8.436;2023-02-28T07:29:12;101284.44;;;4.33;67.51
61318;BME280;47201;40.428;-8.436;2023-02-28T07:31:31;101291.69;;;4.43;67.34
61318;BME280;47201;40.428;-8.436;2023-02-28T07:33:51;101287.00;;;4.58;66.43
61318;BME280;47201;40.428;-8.436;2023-02-28T07:36:11;101282.78;;;4.60;66.66
61318;BME280;47201;40.428;-8.436;2023-02-28T07:38:34;101291.50;;;4.64;67.10
61318;BME280;47201;40.428;-8.436;2023-02-28T07:40:54;101287.47;;;4.72;67.19
61318;BME280;47201;40.428;-8.436;2023-02-28T07:42:55;101294.44;;;4.75;66.48
61318;BME280;47201;40.428;-8.436;2023-02-28T07:45:13;101303.41;;;4.86;66.02
61318;BME280;47201;40.428;-8.436;2023-02-28T07:47:15;101295.97;;;4.97;65.85
61318;BME280;47201;40.428;-8.436;2023-02-28T07:49:16;101303.53;;;5.47;63.30
61318;BME280;47201;40.428;-8.436;2023-02-28T07:51:35;101310.59;;;6.14;61.00
61318;BME280;47201;40.428;-8.436;2023-02-28T07:53:36;101300.81;;;6.74;59.17
61318;BME280;47201;40.428;-8.436;2023-02-28T07:55:58;101303.44;;;8.01;55.43
61318;BME280;47201;40.428;-8.436;2023-02-28T07:58:18;101309.78;;;9.23;51.72
61318;BME280;47201;40.428;-8.436;2023-02-28T08:00:18;101313.28;;;9.98;50.23
61318;BME280;47201;40.428;-8.436;2023-02-28T08:02:19;101314.84;;;10.67;49.05
61318;BME280;47201;40.428;-8.436;2023-02-28T08:04:39;101313.47;;;11.23;47.93
61318;BME280;47201;40.428;-8.436;2023-02-28T08:06:39;101320.59;;;11.52;48.33
61318;BME280;47201;40.428;-8.436;2023-02-28T08:08:39;101318.94;;;11.82;48.58
61318;BME280;47201;40.428;-8.436;2023-02-28T08:10:40;101326.03;;;12.13;48.22
61318;BME280;47201;40.428;-8.436;2023-02-28T08:12:40;101329.56;;;12.47;48.07
61318;BME280;47201;40.428;-8.436;2023-02-28T08:14:59;101330.47;;;12.71;48.95
61318;BME280;47201;40.428;-8.436;2023-02-28T08:17:00;101327.78;;;13.08;48.52
61318;BME280;47201;40.428;-8.436;2023-02-28T08:19:19;101338.22;;;13.27;49.32
61318;BME280;47201;40.428;-8.436;2023-02-28T08:21:21;101332.84;;;13.76;49.30
61318;BME280;47201;40.428;-8.436;2023-02-28T08:23:21;101341.28;;;14.33;48.70
61318;BME280;47201;40.428;-8.436;2023-02-28T08:25:40;101340.38;;;14.34;49.61
61318;BME280;47201;40.428;-8.436;2023-02-28T08:27:41;101341.03;;;14.68;50.51
61318;BME280;47201;40.428;-8.436;2023-02-28T08:29:42;101349.53;;;14.98;50.20
61318;BME280;47201;40.428;-8.436;2023-02-28T08:31:42;101342.97;;;14.38;52.35
61318;BME280;47201;40.428;-8.436;2023-02-28T08:33:45;101356.69;;;14.87;52.80
61318;BME280;47201;40.428;-8.436;2023-02-28T08:35:47;101358.66;;;15.50;52.52
61318;BME280;47201;40.428;-8.436;2023-02-28T08:38:06;101358.97;;;15.97;51.73
61318;BME280;47201;40.428;-8.436;2023-02-28T08:40:06;101366.53;;;16.80;51.07
61318;BME280;47201;40.428;-8.436;2023-02-28T08:42:08;101363.69;;;17.39;50.22
61318;BME280;47201;40.428;-8.436;2023-02-28T08:44:28;101361.91;;;17.84;50.99
61318;BME280;47201;40.428;-8.436;2023-02-28T08:46:28;101366.09;;;17.97;50.89
61318;BME280;47201;40.428;-8.436;2023-02-28T08:48:51;101374.75;;;17.13;54.09
61318;BME280;47201;40.428;-8.436;2023-02-28T08:51:14;101368.78;;;16.48;57.13
61318;BME280;47201;40.428;-8.436;2023-02-28T08:53:18;101377.09;;;16.21;59.00
61318;BME280;47201;40.428;-8.436;2023-02-28T08:55:37;101373.47;;;16.84;58.28
61318;BME280;47201;40.428;-8.436;2023-02-28T08:57:57;101375.16;;;18.26;56.34
61318;BME280;47201;40.428;-8.436;2023-02-28T09:00:17;101378.44;;;19.73;54.21
61318;BME280;47201;40.428;-8.436;2023-02-28T09:02:19;101377.78;;;17.84;58.42
61318;BME280;47201;40.428;-8.436;2023-02-28T09:04:20;101392.22;;;18.11;58.30
61318;BME280;47201;40.428;-8.436;2023-02-28T09:06:22;101398.09;;;18.26;58.61
61318;BME280;47201;40.428;-8.436;2023-02-28T09:08:23;101395.78;;;18.85;58.33
61318;BME280;47201;40.428;-8.436;2023-02-28T09:10:24;101388.66;;;19.57;57.88
61318;BME280;47201;40.428;-8.436;2023-02-28T09:12:25;101387.88;;;19.53;58.16
61318;BME280;47201;40.428;-8.436;2023-02-28T09:14:25;101390.91;;;21.38;55.25
61318;BME280;47201;40.428;-8.436;2023-02-28T09:16:26;101397.31;;;22.05;54.64
61318;BME280;47201;40.428;-8.436;2023-02-28T09:18:27;101399.25;;;21.52;56.21
61318;BME280;47201;40.428;-8.436;2023-02-28T09:20:27;101400.09;;;22.48;55.27
61318;BME280;47201;40.428;-8.436;2023-02-28T09:22:28;101391.94;;;21.83;56.86
61318;BME280;47201;40.428;-8.436;2023-02-28T09:24:28;101412.63;;;19.84;60.95
61318;BME280;47201;40.428;-8.436;2023-02-28T09:26:31;101403.47;;;18.98;63.16
61318;BME280;47201;40.428;-8.436;2023-02-28T09:28:32;101405.41;;;18.52;64.43
61318;BME280;47201;40.428;-8.436;2023-02-28T09:30:32;101405.47;;;17.20;66.82
61318;BME280;47201;40.428;-8.436;2023-02-28T09:32:34;101389.97;;;17.92;66.24
61318;BME280;47201;40.428;-8.436;2023-02-28T09:34:34;101404.22;;;17.85;66.53
61318;BME280;47201;40.428;-8.436;2023-02-28T09:36:55;101401.19;;;18.45;65.72
61318;BME280;47201;40.428;-8.436;2023-02-28T09:38:56;101401.97;;;18.48;65.14
61318;BME280;47201;40.428;-8.436;2023-02-28T09:41:17;101395.25;;;17.92;66.22
61318;BME280;47201;40.428;-8.436;2023-02-28T09:43:29;101389.94;;;17.94;67.05
61318;BME280;47201;40.428;-8.436;2023-02-28T09:45:59;101393.31;;;18.42;66.01
61318;BME280;47201;40.428;-8.436;2023-02-28T09:48:10;101395.09;;;18.41;66.44
61318;BME280;47201;40.428;-8.436;2023-02-28T09:52:21;101392.19;;;17.23;68.42
61318;BME280;47201;40.428;-8.436;2023-02-28T09:54:40;101389.50;;;17.26;68.67
61318;BME280;47201;40.428;-8.436;2023-02-28T09:56:50;101382.25;;;16.86;69.83
61318;BME280;47201;40.428;-8.436;2023-02-28T10:01:34;101385.81;;;19.30;66.25
61318;BME280;47201;40.428;-8.436;2023-02-28T10:05:58;101391.97;;;19.63;65.61
61318;BME280;47201;40.428;-8.436;2023-02-28T10:10:07;101398.69;;;19.12;66.65
61318;BME280;47201;40.428;-8.436;2023-02-28T10:12:15;101387.41;;;19.04;66.41
61318;BME280;47201;40.428;-8.436;2023-02-28T10:14:18;101384.97;;;19.92;65.85
61318;BME280;47201;40.428;-8.436;2023-02-28T10:16:42;101360.03;;;19.37;66.67
61318;BME280;47201;40.428;-8.436;2023-02-28T10:21:38;101386.28;;;19.77;66.26
61318;BME280;47201;40.428;-8.436;2023-02-28T10:24:03;101390.03;;;19.39;67.61
61318;BME280;47201;40.428;-8.436;2023-02-28T10:28:11;101385.03;;;19.26;67.25
61318;BME280;47201;40.428;-8.436;2023-02-28T10:30:13;101389.97;;;19.72;67.33
61318;BME280;47201;40.428;-8.436;2023-02-28T10:32:17;101378.03;;;19.88;67.20
61318;BME280;47201;40.428;-8.436;2023-02-28T10:34:19;101379.69;;;20.21;66.64
61318;BME280;47201;40.428;-8.436;2023-02-28T10:36:20;101381.88;;;20.91;65.94
61318;BME280;47201;40.428;-8.436;2023-02-28T10:38:39;101381.88;;;21.17;65.32
61318;BME280;47201;40.428;-8.436;2023-02-28T10:40:40;101377.88;;;22.25;63.49
61318;BME280;47201;40.428;-8.436;2023-02-28T10:42:41;101383.50;;;21.71;64.39
61318;BME280;47201;40.428;-8.436;2023-02-28T10:44:41;101375.09;;;20.83;65.76
61318;BME280;47201;40.428;-8.436;2023-02-28T10:46:42;101382.47;;;20.18;66.13
61318;BME280;47201;40.428;-8.436;2023-02-28T10:51:10;101372.03;;;20.67;65.77
61318;BME280;47201;40.428;-8.436;2023-02-28T10:53:31;101381.78;;;20.66;65.49
61318;BME280;47201;40.428;-8.436;2023-02-28T10:55:32;101379.63;;;19.94;66.39
61318;BME280;47201;40.428;-8.436;2023-02-28T10:57:33;101376.28;;;19.87;66.44
61318;BME280;47201;40.428;-8.436;2023-02-28T10:59:53;101374.00;;;20.05;66.42
61318;BME280;47201;40.428;-8.436;2023-02-28T11:06:48;101375.63;;;20.66;65.62
61318;BME280;47201;40.428;-8.436;2023-02-28T11:08:58;101370.13;;;20.43;66.25
61318;BME280;47201;40.428;-8.436;2023-02-28T11:11:01;101367.28;;;20.78;65.08
61318;BME280;47201;40.428;-8.436;2023-02-28T11:13:04;101373.88;;;19.78;66.18
61318;BME280;47201;40.428;-8.436;2023-02-28T11:15:06;101370.22;;;19.52;66.95
61318;BME280;47201;40.428;-8.436;2023-02-28T11:17:19;101370.84;;;19.92;66.89
61318;BME280;47201;40.428;-8.436;2023-02-28T11:19:22;101353.81;;;19.99;66.46
61318;BME280;47201;40.428;-8.436;2023-02-28T11:21:26;101360.63;;;19.46;67.96
61318;BME280;47201;40.428;-8.436;2023-02-28T11:23:29;101353.34;;;19.55;66.92
61318;BME280;47201;40.428;-8.436;2023-02-28T11:25:34;101363.09;;;19.86;66.85
61318;BME280;47201;40.428;-8.436;2023-02-28T11:29:37;101370.63;;;19.68;67.50
61318;BME280;47201;40.428;-8.436;2023-02-28T11:34:23;101350.53;;;19.91;67.83
61318;BME280;47201;40.428;-8.436;2023-02-28T11:36:25;101361.75;;;19.69;66.70
61318;BME280;47201;40.428;-8.436;2023-02-28T11:38:45;101362.47;;;20.06;67.35
61318;BME280;47201;40.428;-8.436;2023-02-28T11:52:02;101354.97;;;21.01;66.55
61318;BME280;47201;40.428;-8.436;2023-02-28T11:54:27;101348.63;;;21.05;66.57
61318;BME280;47201;40.428;-8.436;2023-02-28T12:17:47;101344.84;;;18.02;70.64
61318;BME280;47201;40.428;-8.436;2023-02-28T12:26:42;101337.97;;;14.03;77.25
61318;BME280;47201;40.428;-8.436;2023-02-28T12:28:53;101333.84;;;13.30;78.33
61318;BME280;47201;40.428;-8.436;2023-02-28T12:31:38;101326.91;;;13.01;78.71
61318;BME280;47201;40.428;-8.436;2023-02-28T12:33:18;101332.19;;;12.69;79.16
61318;BME280;47201;40.428;-8.436;2023-02-28T12:35:26;101321.72;;;12.52;80.48
61318;BME280;47201;40.428;-8.436;2023-02-28T12:37:38;101319.94;;;12.37;79.95
61318;BME280;47201;40.428;-8.436;2023-02-28T12:39:42;101318.22;;;12.36;80.30
61318;BME280;47201;40.428;-8.436;2023-02-28T12:41:54;101310.34;;;12.27;79.63
61318;BME280;47201;40.428;-8.436;2023-02-28T12:46:42;101292.84;;;12.44;80.96
61318;BME280;47201;40.428;-8.436;2023-02-28T12:48:44;101290.22;;;12.49;79.70